createdAt,value
2023-02-08T00:01:51.197Z,21.10
2023-02-08T00:05:08.664Z,21.23
2023-02-08T00:23:06.407Z,21.07
2023-02-08T00:26:00.550Z,21.95
2023-02-08T00:28:45.654Z,21.00
2023-02-08T00:31:30.625Z,34.95
2023-02-08T00:34:24.413Z,28.48
2023-02-08T00:37:08.767Z,24.17
2023-02-08T00:39:54.535Z,25.13
2023-02-08T00:42:39.733Z,22.73
2023-02-08T00:45:21.492Z,24.30
2023-02-08T00:47:57.554Z,25.25
2023-02-08T00:50:42.928Z,23.13
2023-02-08T00:53:57.386Z,24.25
2023-02-08T00:56:42.492Z,26.25
2023-02-08T00:59:56.480Z,24.48
2023-02-08T01:06:05.793Z,21.63
2023-02-08T01:08:45.077Z,22.50
2023-02-08T01:11:23.803Z,24.35
2023-02-08T01:15:04.691Z,24.00
2023-02-08T02:01:33.722Z,22.30
2023-02-08T04:02:47.418Z,17.80
2023-02-08T04:15:58.876Z,21.38
2023-02-08T04:28:19.725Z,25.27
2023-02-08T04:31:05.628Z,20.63
2023-02-08T09:29:23.482Z,22.92
2023-02-08T09:32:01.060Z,24.45
2023-02-08T09:37:30.189Z,17.98
2023-02-08T09:43:47.115Z,16.65
2023-02-08T09:46:32.377Z,19.38
2023-02-08T09:52:24.139Z,18.80
2023-02-08T10:01:42.811Z,19.73
2023-02-08T10:04:50.304Z,22.10
2023-02-08T10:14:13.050Z,18.00
2023-02-08T10:17:03.372Z,21.77
2023-02-08T10:29:46.376Z,25.45
2023-02-08T10:32:28.285Z,20.35
2023-02-08T10:35:27.753Z,29.60
2023-02-08T10:37:55.242Z,16.13
2023-02-08T10:40:37.732Z,21.53
2023-02-08T10:49:22.526Z,17.35
2023-02-08T10:51:49.676Z,19.27
2023-02-08T11:00:05.936Z,17.88
2023-02-08T11:02:39.569Z,17.80
2023-02-08T11:05:07.940Z,17.30
2023-02-08T11:07:36.798Z,16.17
2023-02-08T11:10:30.876Z,15.82
2023-02-08T11:13:14.995Z,16.55
2023-02-08T11:19:02.722Z,18.15
2023-02-08T11:21:32.683Z,16.37
2023-02-08T11:24:33.073Z,15.05
2023-02-08T11:27:34.285Z,20.80
2023-02-08T11:30:12.945Z,14.75
2023-02-08T11:32:45.346Z,13.95
2023-02-08T11:35:24.302Z,16.17
2023-02-08T11:37:58.612Z,18.23
2023-02-08T11:41:03.058Z,14.38
2023-02-08T11:46:39.397Z,16.55
2023-02-08T11:49:06.303Z,16.27
2023-02-08T11:51:37.281Z,17.58
2023-02-08T11:54:05.808Z,16.10
2023-02-08T11:56:41.562Z,19.25
2023-02-08T11:59:23.604Z,13.27
2023-02-08T12:01:50.490Z,19.37
2023-02-08T12:07:19.979Z,14.60
2023-02-08T12:10:24.064Z,15.88
2023-02-08T12:13:01.569Z,17.17
2023-02-08T12:19:05.328Z,18.73
2023-02-08T12:21:46.816Z,25.35
2023-02-08T12:24:44.125Z,25.42
2023-02-08T12:27:52.457Z,25.27
2023-02-08T12:30:58.494Z,16.23
2023-02-08T12:34:27.447Z,18.05
2023-02-08T12:40:41.048Z,19.23
2023-02-08T12:43:24.890Z,16.30
2023-02-08T12:46:18.369Z,18.93
2023-02-08T12:49:36.251Z,17.13
2023-02-08T12:52:33.954Z,21.27
2023-02-08T12:55:41.195Z,24.60
2023-02-08T12:58:50.517Z,16.92
2023-02-08T13:01:29.484Z,16.43
2023-02-08T13:04:10.769Z,15.43
2023-02-08T13:06:48.851Z,21.92
2023-02-08T13:09:25.310Z,15.68
2023-02-08T13:12:25.859Z,17.00
2023-02-08T13:15:31.290Z,14.87
2023-02-08T13:18:14.582Z,14.38
2023-02-08T13:21:12.670Z,13.35
2023-02-08T13:23:53.018Z,18.05
2023-02-08T13:26:29.386Z,15.68
2023-02-08T13:29:18.172Z,14.67
2023-02-08T13:31:50.112Z,17.88
2023-02-08T13:34:25.511Z,14.95
2023-02-08T13:37:02.002Z,15.32
2023-02-08T13:39:36.320Z,13.38
2023-02-08T13:45:31.375Z,18.00
2023-02-08T13:48:06.052Z,13.13
2023-02-08T13:50:48.692Z,18.08
2023-02-08T13:53:45.683Z,17.88
2023-02-08T13:59:38.245Z,15.93
2023-02-08T14:02:17.290Z,18.60
2023-02-08T14:04:52.726Z,14.65
2023-02-08T14:07:30.617Z,22.25
2023-02-08T14:10:36.200Z,16.13
2023-02-08T14:16:56.805Z,18.05
2023-02-08T14:19:31.237Z,15.50
2023-02-08T14:22:11.088Z,17.65
2023-02-08T14:24:44.222Z,13.67
2023-02-08T14:27:28.560Z,14.35
2023-02-08T14:30:31.171Z,12.73
2023-02-08T14:33:07.353Z,17.08
2023-02-08T14:35:55.006Z,11.95
2023-02-08T14:38:24.757Z,14.13
2023-02-08T14:40:58.066Z,11.93
2023-02-08T14:43:41.543Z,12.90
2023-02-08T14:46:37.293Z,15.82
2023-02-08T14:49:18.634Z,12.55
2023-02-08T14:52:10.139Z,11.50
2023-02-08T14:54:48.654Z,17.20
2023-02-08T14:57:26.292Z,23.88
2023-02-08T15:00:14.997Z,14.80
2023-02-08T15:02:45.820Z,15.88
2023-02-08T15:05:28.354Z,15.30
2023-02-08T15:07:59.334Z,11.18
2023-02-08T15:10:34.771Z,16.58
2023-02-08T15:13:23.678Z,14.75
2023-02-08T15:15:58.676Z,16.23
2023-02-08T15:18:31.728Z,12.77
2023-02-08T15:21:19.262Z,12.38
2023-02-08T15:24:21.206Z,10.40
2023-02-08T15:27:03.489Z,11.00
2023-02-08T15:29:44.723Z,12.77
2023-02-08T15:32:23.573Z,12.37
2023-02-08T15:37:57.662Z,13.32
2023-02-08T15:40:35.984Z,17.58
2023-02-08T15:43:24.897Z,14.23
2023-02-08T15:46:04.054Z,10.60
2023-02-08T15:48:35.832Z,14.40
2023-02-08T15:51:03.040Z,12.13
2023-02-08T15:53:48.094Z,15.43
2023-02-08T15:56:35.998Z,13.93
2023-02-08T15:59:22.354Z,20.33
2023-02-08T16:01:57.345Z,10.65
2023-02-08T16:04:26.776Z,13.98
2023-02-08T16:06:59.925Z,10.43
2023-02-08T16:09:32.053Z,12.68
2023-02-08T16:12:20.272Z,10.60
2023-02-08T16:14:52.400Z,18.52
2023-02-08T16:17:48.024Z,10.30
2023-02-08T16:21:04.917Z,17.63
2023-02-08T16:23:32.450Z,13.88
2023-02-08T16:26:23.336Z,10.77
2023-02-08T16:29:01.817Z,12.10
2023-02-08T16:31:33.247Z,14.25
2023-02-08T16:34:15.854Z,18.63
2023-02-08T16:36:46.068Z,12.52
2023-02-08T16:39:19.181Z,18.63
2023-02-08T16:42:15.221Z,11.63
2023-02-08T16:45:00.252Z,14.20
2023-02-08T16:51:29.375Z,15.75
2023-02-08T16:54:01.097Z,15.17
2023-02-08T16:56:37.771Z,15.77
2023-02-08T16:59:12.312Z,18.27
2023-02-08T17:01:39.535Z,12.27
2023-02-08T17:04:57.142Z,15.32
2023-02-08T17:07:28.311Z,15.83
2023-02-08T17:10:08.963Z,14.70
2023-02-08T17:12:38.765Z,10.98
2023-02-08T17:15:18.334Z,9.38
2023-02-08T17:17:51.493Z,12.35
2023-02-08T17:20:35.367Z,13.07
2023-02-08T17:23:04.797Z,14.02
2023-02-08T17:25:33.922Z,14.60
2023-02-08T17:28:09.176Z,9.10
2023-02-08T17:30:38.976Z,13.55
2023-02-08T17:33:06.768Z,9.13
2023-02-08T17:35:39.203Z,13.27
2023-02-08T17:38:23.844Z,13.48
2023-02-08T17:41:02.465Z,11.93
2023-02-08T17:43:44.678Z,9.13
2023-02-08T22:11:35.849Z,15.63
